Kohler, WI (53044)

2:15 PM CDT on July 27, 2016 (GMT -0500)
Town of Sheboygan NW | | Change Station

Elev 673 ft 43.78 °N, 87.77 °W | Updated 41 seconds ago

Rain
Rain Mist
68.9 °F
Feels Like 68.9 °F
N
0.0
Wind Variable Wind from SW
Gusts 2.0 mph

Today
High -- | Low -- °F
--% Chance of Precip.
Yesterday
High -- | Low -- °F
Precip. -- in
Pressure 30.01 in
Visibility 6.0 miles
Clouds Scattered Clouds 3200 ft
Mostly Cloudy 8000 ft
Overcast 9500 ft
Dew Point 67 °F
Humidity 95%
Rainfall 0.62 in
Snow Depth Not available.
5:35 AM 8:19 PM
Last Quarter, 40% visible
SPECI KSBM 271900Z AUTO 20003KT 6SM VCTS RA BR SCT032 BKN080 OVC095 21/18 A3001 RMK AO2 LTG DSNT SE-SW TSE1854 P0001 T02060183
Pressure 30.01 in
Visibility 6.0 miles
Clouds Scattered Clouds 3200 ft
Mostly Cloudy 8000 ft
Overcast 9500 ft
Dew Point 67 °F
Humidity 95%
Rainfall 0.62 in
Snow Depth Not available.
5:35 AM 8:19 PM
Last Quarter, 40% visible
SPECI KSBM 271900Z AUTO 20003KT 6SM VCTS RA BR SCT032 BKN080 OVC095 21/18 A3001 RMK AO2 LTG DSNT SE-SW TSE1854 P0001 T02060183

10-Day Weather Forecast

Almanac

Astronomy

Jul. 27, 2016 Rise Set
Actual Time
Civil Twilight
Nautical Twilight
Astronomical Twilight
Moon
Length of Visible Light
Length of Day
Tomorrow will be .
, % of the Moon is Illuminated

Today's Extremes

State Highs State Lows

Community

WunderPhotos

Upload Photos

1,927,909 photos uploaded!

WunderBlog® & News

Nearby

Air Quality

  Air Quality AQ Index Pollutant
Not available.

Snow Depth

Station Depth Elevation

Earthquake Activity

City Distance Mag. Time & Date
Minimum magnitude displayed is 2.5.

Coastal Water Temperatures

Place Temperature

Stations

Nearby Weather Stations

Station Location Temp. Windchill Dew Point Humidity Wind Precip. Elev Updated Type
                   

Watches & Warnings

There are currently no watches in effect.